Station Historical Data
Daily Summary for June 2, 2017 Units:  English    Metric   Both
« Previous Day
Next Day »
Daily Weekly Monthly Yearly Custom
  High: Low: Average:
Temperature: 85.6 °F 67.0 °F 75 °F
Dew Point: 67.6 °F 58.4 °F 63.8 °F
Humidity: 93% 42% 70%
Wind Speed: 1.0mph 0.0mph 0mph
Wind Gust: 3.0mph - -
Wind- - WSW
Pressure: 30.11 in 29.99 in -
Precipitation: 0.00 in    
Historical Graphs
 
 
Tabular Data for June 2, 2017
Time Temperature Dew Point Pressure Wind Wind Speed Wind Gust Humidity Rainfall Rate (Hourly) Conditions
00:00 69.7 °F 65.3 °F 30.07 in Calm     86% 0.00 in SCT
00:10 69.6 °F 65.2 °F 30.07 in Calm     86% 0.00 in SCT
00:20 69.5 °F 65.1 °F 30.07 in Calm     86% 0.00 in SCT
00:30 69.3 °F 64.9 °F 30.07 in Calm     86% 0.00 in SCT
00:40 69.2 °F 65.2 °F 30.06 in Calm     87% 0.00 in SCT
00:50 69.1 °F 65.0 °F 30.07 in Calm     87% 0.00 in SCT
01:00 69.0 °F 65.0 °F 30.06 in Calm     87% 0.00 in SCT
01:10 68.9 °F 64.9 °F 30.06 in Calm     87% 0.00 in SCT
01:20 68.7 °F 64.3 °F 30.06 in Calm     86% 0.00 in SCT
01:30 68.5 °F 64.5 °F 30.06 in Calm     87% 0.00 in SCT
01:40 68.3 °F 64.3 °F 30.05 in Calm     87% 0.00 in SCT
01:50 68.1 °F 64.1 °F 30.05 in Calm     87% 0.00 in SCT
02:00 68.0 °F 64.3 °F 30.05 in Calm     88% 0.00 in SCT
02:10 67.8 °F 64.1 °F 30.05 in Calm     88% 0.00 in SCT
02:20 67.7 °F 64.0 °F 30.05 in Calm     88% 0.00 in SCT
02:30 67.6 °F 63.9 °F 30.05 in Calm     88% 0.00 in SCT
02:40 67.0 °F 63.0 °F 30.05 in Calm     87% 0.00 in SCT
02:50 68.4 °F 64.4 °F 30.05 in Calm     87% 0.00 in SCT
03:00 68.4 °F 64.4 °F 30.05 in Calm     87% 0.00 in SCT
03:10 68.4 °F 64.4 °F 30.05 in Calm     87% 0.00 in SCT
03:20 68.4 °F 64.4 °F 30.05 in Calm     87% 0.00 in SCT
03:30 68.4 °F 64.4 °F 30.05 in Calm     87% 0.00 in SCT
03:40 68.4 °F 64.4 °F 30.05 in Calm     87% 0.00 in SCT
03:50 68.4 °F 64.4 °F 30.05 in Calm     87% 0.00 in SCT
04:00 68.4 °F 64.4 °F 30.05 in Calm     87% 0.00 in SCT
04:10 68.4 °F 64.4 °F 30.05 in Calm     87% 0.00 in SCT
04:20 68.4 °F 64.4 °F 30.05 in Calm     87% 0.00 in SCT
04:30 68.4 °F 64.4 °F 30.06 in Calm     87% 0.00 in SCT
04:40 68.4 °F 64.4 °F 30.06 in Calm     87% 0.00 in SCT
04:50 68.4 °F 64.4 °F 30.06 in Calm     87% 0.00 in SCT
05:00 68.4 °F 64.4 °F 30.06 in Calm     87% 0.00 in SCT
05:10 68.4 °F 64.4 °F 30.06 in Calm     87% 0.00 in SCT
05:20 68.4 °F 64.4 °F 30.07 in Calm     87% 0.00 in SCT
05:30 68.4 °F 64.4 °F 30.06 in Calm     87% 0.00 in SCT
05:40 68.4 °F 64.4 °F 30.06 in Calm     87% 0.00 in SCT
05:50 68.4 °F 64.4 °F 30.07 in Calm     87% 0.00 in SCT
06:00 68.4 °F 64.4 °F 30.07 in Calm     87% 0.00 in SCT
06:10 68.4 °F 64.4 °F 30.07 in Calm     87% 0.00 in SCT
06:20 68.4 °F 64.4 °F 30.08 in Calm     87% 0.00 in SCT
06:30 68.4 °F 64.4 °F 30.08 in Calm     87% 0.00 in SCT
06:40 68.4 °F 64.4 °F 30.08 in Calm     87% 0.00 in SCT
06:50 68.4 °F 64.4 °F 30.08 in Calm     87% 0.00 in SCT
07:00 68.4 °F 64.4 °F 30.08 in Calm     87% 0.00 in SCT
07:10 68.4 °F 64.4 °F 30.08 in Calm     87% 0.00 in SCT
07:20 68.4 °F 64.4 °F 30.09 in Calm     87% 0.00 in SCT
07:30 68.4 °F 64.4 °F 30.09 in Calm     87% 0.00 in SCT
07:40 68.4 °F 64.4 °F 30.09 in Calm     87% 0.00 in SCT
07:50 68.4 °F 64.4 °F 30.10 in Calm     87% 0.00 in SCT
08:00 68.4 °F 64.4 °F 30.10 in Calm     87% 0.00 in SCT
08:10 67.8 °F 65.7 °F 30.10 in Calm     93% 0.00 in SCT
08:20 68.3 °F 65.9 °F 30.10 in Calm     92% 0.00 in SCT
08:30 69.0 °F 66.6 °F 30.10 in Calm     92% 0.00 in SCT
08:40 69.5 °F 66.4 °F 30.10 in Calm     90% 0.00 in SCT
08:50 70.1 °F 66.1 °F 30.10 in Calm     87% 0.00 in SCT
09:00 70.8 °F 66.0 °F 30.11 in Calm     85% 0.00 in SCT
09:10 71.2 °F 66.1 °F 30.11 in Calm     84% 0.00 in SCT
09:20 71.7 °F 66.6 °F 30.11 in Calm     84% 0.00 in SCT
09:30 72.2 °F 66.7 °F 30.11 in Calm     83% 0.00 in SCT
09:40 72.6 °F 66.8 °F 30.10 in Calm   2.0 mph 82% 0.00 in SCT
09:50 73.2 °F 66.7 °F 30.10 in Calm   2.0 mph 80% 0.00 in SCT
10:00 73.9 °F 67.0 °F 30.11 in Calm   1.0 mph 79% 0.00 in SCT
10:10 74.3 °F 67.4 °F 30.11 in Calm   1.0 mph 79% 0.00 in SCT
10:20 75.3 °F 67.6 °F 30.10 in Calm   1.0 mph 77% 0.00 in SCT
10:30 76.0 °F 67.1 °F 30.10 in Calm   1.0 mph 74% 0.00 in SCT
10:40 76.5 °F 66.8 °F 30.10 in Calm     72% 0.00 in SCT
10:50 76.7 °F 67.0 °F 30.10 in Calm     72% 0.00 in SCT
11:00 76.8 °F 66.7 °F 30.10 in Calm     71% 0.00 in SCT
11:10 77.2 °F 67.5 °F 30.09 in Calm     72% 0.00 in SCT
11:20 77.7 °F 66.7 °F 30.09 in Calm     69% 0.00 in SCT
11:30 77.4 °F 65.6 °F 30.09 in Calm     67% 0.00 in SCT
11:40 77.9 °F 65.6 °F 30.09 in Calm   1.0 mph 66% 0.00 in SCT
11:50 78.4 °F 65.2 °F 30.08 in Calm   1.0 mph 64% 0.00 in SCT
12:00 78.5 °F 66.2 °F 30.08 in Calm   1.0 mph 66% 0.00 in SCT
12:10 79.3 °F 66.0 °F 30.09 in Calm   1.0 mph 64% 0.00 in SCT
12:20 79.7 °F 65.1 °F 30.09 in Calm   1.0 mph 61% 0.00 in SCT
12:30 80.2 °F 62.0 °F 30.08 in WNW 1.0 mph 2.0 mph 54% 0.00 in SCT
12:40 80.6 °F 64.0 °F 30.08 in Calm   1.0 mph 57% 0.00 in SCT
12:50 81.5 °F 62.7 °F 30.08 in Calm   1.0 mph 53% 0.00 in SCT
13:00 82.3 °F 64.0 °F 30.08 in Calm   2.0 mph 54% 0.00 in SCT
13:10 83.3 °F 62.7 °F 30.07 in Calm   1.0 mph 50% 0.00 in SCT
13:20 83.9 °F 62.1 °F 30.07 in Calm   2.0 mph 48% 0.00 in SCT
13:30 83.8 °F 62.0 °F 30.07 in Calm   3.0 mph 48% 0.00 in SCT
13:40 83.7 °F 63.1 °F 30.07 in Calm   1.0 mph 50% 0.00 in SCT
13:50 84.4 °F 61.4 °F 30.06 in Calm   1.0 mph 46% 0.00 in SCT
14:00 84.5 °F 63.2 °F 30.06 in Calm   1.0 mph 49% 0.00 in SCT
14:10 84.4 °F 63.2 °F 30.06 in West 1.0 mph 2.0 mph 49% 0.00 in SCT
14:20 84.5 °F 63.2 °F 30.05 in Calm   1.0 mph 49% 0.00 in SCT
14:30 84.5 °F 62.7 °F 30.05 in Calm   2.0 mph 48% 0.00 in SCT
14:40 84.6 °F 62.2 °F 30.04 in North 1.0 mph 1.0 mph 47% 0.00 in SCT
14:50 84.0 °F 58.4 °F 30.04 in Calm   2.0 mph 42% 0.00 in SCT
15:00 83.6 °F 61.2 °F 30.04 in Calm   1.0 mph 47% 0.00 in SCT
15:10 83.8 °F 61.4 °F 30.03 in Calm   2.0 mph 47% 0.00 in SCT
15:20 83.9 °F 61.5 °F 30.03 in Calm   1.0 mph 47% 0.00 in SCT
15:30 83.8 °F 62.6 °F 30.02 in Calm   1.0 mph 49% 0.00 in SCT
15:40 83.9 °F 60.3 °F 30.02 in Calm   2.0 mph 45% 0.00 in SCT
15:50 83.5 °F 61.1 °F 30.02 in Calm   2.0 mph 47% 0.00 in SCT
16:00 83.7 °F 60.7 °F 30.02 in Calm   1.0 mph 46% 0.00 in SCT
16:10 83.8 °F 60.9 °F 30.01 in Calm   2.0 mph 46% 0.00 in SCT
16:20 83.9 °F 60.3 °F 30.01 in Calm   2.0 mph 45% 0.00 in SCT
16:30 84.0 °F 60.4 °F 30.00 in Calm   1.0 mph 45% 0.00 in SCT
16:40 83.6 °F 60.0 °F 30.00 in Calm   1.0 mph 45% 0.00 in SCT
16:50 83.4 °F 59.9 °F 30.01 in Calm   2.0 mph 45% 0.00 in SCT
17:00 84.7 °F 61.0 °F 30.01 in Calm   1.0 mph 45% 0.00 in SCT
17:10 85.6 °F 59.9 °F 30.01 in Calm   1.0 mph 42% 0.00 in SCT
17:20 85.1 °F 63.2 °F 30.01 in Calm   1.0 mph 48% 0.00 in SCT
17:30 83.4 °F 62.8 °F 30.00 in Calm   1.0 mph 50% 0.00 in SCT
17:40 83.2 °F 62.1 °F 30.00 in Calm   1.0 mph 49% 0.00 in SCT
17:50 83.3 °F 63.3 °F 30.00 in East 1.0 mph 2.0 mph 51% 0.00 in SCT
18:00 83.4 °F 61.6 °F 30.00 in Calm   2.0 mph 48% 0.00 in SCT
18:10 82.9 °F 61.8 °F 30.00 in Calm   2.0 mph 49% 0.00 in SCT
18:20 82.9 °F 60.6 °F 30.00 in Calm   1.0 mph 47% 0.00 in SCT
18:30 82.3 °F 61.8 °F 30.00 in Calm   1.0 mph 50% 0.00 in SCT
18:40 81.5 °F 62.7 °F 30.00 in Calm   1.0 mph 53% 0.00 in SCT
18:50 81.0 °F 62.3 °F 30.00 in Calm   2.0 mph 53% 0.00 in SCT
19:00 80.7 °F 61.4 °F 29.99 in Calm   1.0 mph 52% 0.00 in SCT
19:10 80.3 °F 61.6 °F 29.99 in Calm   1.0 mph 53% 0.00 in SCT
19:20 80.1 °F 61.9 °F 30.00 in Calm   1.0 mph 54% 0.00 in SCT
19:30 79.6 °F 62.0 °F 29.99 in Calm   1.0 mph 55% 0.00 in SCT
19:40 79.1 °F 62.1 °F 29.99 in Calm   1.0 mph 56% 0.00 in SCT
19:50 78.8 °F 61.7 °F 29.99 in Calm     56% 0.00 in SCT
20:00 78.5 °F 63.0 °F 29.99 in Calm     59% 0.00 in SCT
20:10 78.2 °F 63.2 °F 30.00 in Calm     60% 0.00 in SCT
20:20 77.9 °F 61.9 °F 29.99 in Calm     58% 0.00 in SCT
20:30 77.3 °F 62.4 °F 29.99 in Calm     60% 0.00 in SCT
20:40 76.9 °F 62.4 °F 30.00 in Calm     61% 0.00 in SCT
20:50 76.6 °F 62.6 °F 30.00 in Calm     62% 0.00 in SCT
21:00 76.2 °F 62.7 °F 30.00 in Calm     63% 0.00 in SCT
21:10 75.9 °F 63.3 °F 30.00 in Calm     65% 0.00 in SCT
21:20 75.6 °F 63.4 °F 30.00 in Calm     66% 0.00 in SCT
21:30 75.3 °F 63.1 °F 30.00 in Calm     66% 0.00 in SCT
21:40 74.8 °F 63.1 °F 30.01 in Calm     67% 0.00 in SCT
21:50 74.4 °F 63.1 °F 30.01 in Calm     68% 0.00 in SCT
22:00 73.9 °F 63.1 °F 30.02 in Calm     69% 0.00 in SCT
22:10 73.4 °F 63.5 °F 30.02 in Calm     71% 0.00 in SCT
22:20 73.0 °F 63.4 °F 30.03 in Calm     72% 0.00 in SCT
22:30 72.7 °F 63.9 °F 30.03 in Calm     74% 0.00 in SCT
22:40 72.4 °F 64.4 °F 30.04 in Calm     76% 0.00 in SCT
22:50 72.1 °F 64.1 °F 30.04 in Calm     76% 0.00 in SCT
23:00 71.7 °F 63.8 °F 30.04 in Calm     76% 0.00 in SCT
23:10 71.5 °F 63.9 °F 30.04 in Calm     77% 0.00 in SCT
23:20 71.2 °F 63.6 °F 30.05 in Calm     77% 0.00 in SCT
23:30 71.1 °F 63.9 °F 30.05 in Calm     78% 0.00 in SCT
23:40 70.9 °F 63.3 °F 30.05 in Calm     77% 0.00 in SCT
23:50 70.9 °F 63.7 °F 30.04 in Calm     78% 0.00 in SCT
Piedmont Bend
Compliments of Weather Underground - 2 mb